Time;durP1;ratioP1;P1;durP2;ratioP2;P2;SDS_P1;SDS_P2;PMS_P1;PMS_P2;Temp;Humidity;BMP_temperature;BMP_pressure;BME280_temperature;BME280_humidity;BME280_pressure;Samples;Min_cycle;Max_cycle;Signal;HPM_P1;HPM_P2
2023/11/19 00:01:37;;;;;;;6.88;2.40;;;25.10;67.60;;;;;;5027893;28;20036;-62
2023/11/19 00:04:04;;;;;;;7.90;4.30;;;25.00;68.50;;;;;;5033208;28;20026;-63
2023/11/19 00:06:31;;;;;;;10.27;2.58;;;24.90;68.30;;;;;;5031170;28;20128;-60
2023/11/19 00:08:57;;;;;;;14.10;7.55;;;24.90;68.90;;;;;;5030843;28;20033;-62
2023/11/19 00:11:24;;;;;;;3.78;2.47;;;24.80;69.20;;;;;;5029028;28;20041;-62
2023/11/19 00:13:50;;;;;;;9.50;5.47;;;24.70;69.70;;;;;;5032405;28;20028;-63
2023/11/19 00:16:17;;;;;;;9.70;5.18;;;24.70;69.80;;;;;;5032221;28;20025;-62
2023/11/19 00:18:43;;;;;;;17.60;2.80;;;24.60;69.80;;;;;;5030796;28;20325;-63
2023/11/19 00:21:10;;;;;;;17.75;14.98;;;24.60;69.60;;;;;;5032890;28;20029;-64
2023/11/19 00:23:37;;;;;;;6.18;3.50;;;24.60;69.80;;;;;;5032343;28;20040;-63
2023/11/19 00:26:05;;;;;;;10.40;5.40;;;24.50;69.80;;;;;;5034014;28;20029;-61
2023/11/19 00:28:34;;;;;;;23.77;16.52;;;24.50;70.10;;;;;;5031778;28;20545;-64
2023/11/19 00:31:00;;;;;;;12.07;5.35;;;24.40;70.50;;;;;;5031107;28;20033;-63
2023/11/19 00:33:27;;;;;;;6.10;3.53;;;24.40;70.80;;;;;;5031767;28;20404;-65
2023/11/19 00:35:53;;;;;;;10.68;6.85;;;24.30;70.70;;;;;;5033022;28;20033;-67
2023/11/19 00:38:19;;;;;;;10.77;3.35;;;24.30;70.60;;;;;;5032192;28;20058;-70
2023/11/19 00:40:46;;;;;;;15.93;7.55;;;24.20;70.50;;;;;;5032674;28;20028;-70
2023/11/19 00:43:13;;;;;;;4.22;2.72;;;24.20;70.80;;;;;;5032762;28;20104;-64
2023/11/19 00:45:39;;;;;;;93.70;51.08;;;24.10;70.40;;;;;;5032951;28;20616;-63
2023/11/19 00:48:06;;;;;;;6.82;4.05;;;24.10;70.60;;;;;;5032283;28;20368;-65
2023/11/19 00:50:33;;;;;;;11.93;7.25;;;24.10;71.00;;;;;;5036961;28;20421;-62
2023/11/19 00:53:00;;;;;;;10.25;4.50;;;24.00;71.10;;;;;;5029694;28;20099;-65
2023/11/19 00:55:27;;;;;;;6.15;3.88;;;24.00;71.70;;;;;;5033961;28;20025;-62
2023/11/19 00:57:55;;;;;;;9.48;3.95;;;23.90;71.20;;;;;;5027408;28;20096;-64
2023/11/19 01:00:24;;;;;;;6.53;2.85;;;23.90;71.50;;;;;;5032777;28;20029;-65
2023/11/19 01:02:50;;;;;;;11.10;3.50;;;23.80;71.60;;;;;;5030254;28;20057;-64
2023/11/19 01:05:21;;;;;;;8.05;3.28;;;23.80;72.20;;;;;;5031887;28;20054;-66
2023/11/19 01:07:47;;;;;;;10.52;3.80;;;23.70;72.40;;;;;;5032189;28;20760;-64
2023/11/19 01:10:15;;;;;;;8.15;3.00;;;23.70;72.50;;;;;;5031775;28;20055;-61
2023/11/19 01:12:42;;;;;;;8.35;3.00;;;23.70;72.10;;;;;;5030771;28;20520;-63
2023/11/19 01:15:09;;;;;;;8.38;2.80;;;23.60;72.70;;;;;;5032338;28;20043;-64
2023/11/19 01:17:37;;;;;;;8.73;2.75;;;23.60;72.70;;;;;;5030597;28;20038;-59
2023/11/19 01:20:07;;;;;;;4.82;2.70;;;23.60;72.90;;;;;;5031311;28;20033;-61
2023/11/19 01:22:33;;;;;;;10.13;2.97;;;23.50;73.00;;;;;;5030983;28;20036;-62
2023/11/19 01:25:00;;;;;;;9.95;3.28;;;23.50;73.40;;;;;;5032129;28;20048;-59
2023/11/19 01:27:26;;;;;;;10.20;3.38;;;23.50;73.70;;;;;;5031773;28;20040;-60
2023/11/19 01:29:53;;;;;;;8.23;3.30;;;23.40;73.80;;;;;;5027767;28;20055;-59
2023/11/19 01:32:19;;;;;;;13.30;2.55;;;23.40;74.20;;;;;;5030493;28;20055;-64
2023/11/19 01:34:46;;;;;;;10.13;3.17;;;23.40;73.90;;;;;;5029487;28;20105;-65
2023/11/19 01:37:14;;;;;;;13.43;3.60;;;23.40;74.40;;;;;;5031814;28;20039;-62
2023/11/19 01:39:40;;;;;;;16.83;3.47;;;23.30;74.90;;;;;;5031706;28;20036;-64
2023/11/19 01:42:07;;;;;;;10.65;3.50;;;23.30;75.20;;;;;;5031264;28;20450;-63
2023/11/19 01:44:33;;;;;;;10.13;4.45;;;23.30;75.60;;;;;;5030385;28;20055;-63
2023/11/19 01:47:00;;;;;;;15.75;5.30;;;23.30;75.70;;;;;;5023577;28;20041;-61
2023/11/19 01:49:27;;;;;;;12.93;7.13;;;23.20;76.10;;;;;;5029971;28;20075;-64
2023/11/19 01:51:54;;;;;;;18.60;6.38;;;23.10;76.50;;;;;;5028607;28;20147;-62
2023/11/19 01:54:20;;;;;;;11.90;4.53;;;23.10;77.10;;;;;;5029995;28;20162;-60
2023/11/19 01:56:47;;;;;;;14.07;4.43;;;23.10;77.30;;;;;;5030493;28;20395;-60
2023/11/19 01:59:14;;;;;;;9.20;3.90;;;23.00;77.50;;;;;;5031874;28;20091;-65
2023/11/19 02:01:41;;;;;;;14.00;4.13;;;23.00;77.40;;;;;;5030145;28;20058;-67
2023/11/19 02:04:09;;;;;;;13.45;4.05;;;23.00;78.20;;;;;;5030200;28;20508;-60
2023/11/19 02:06:40;;;;;;;13.27;3.67;;;22.90;78.40;;;;;;5028616;28;20044;-61
2023/11/19 02:09:07;;;;;;;8.40;3.58;;;22.90;78.50;;;;;;5030326;28;20038;-64
2023/11/19 02:11:34;;;;;;;7.97;3.30;;;22.80;78.60;;;;;;5029392;28;20052;-62
2023/11/19 02:14:03;;;;;;;8.25;3.47;;;22.80;78.20;;;;;;5029926;28;20062;-62
2023/11/19 02:16:30;;;;;;;13.60;2.97;;;22.80;78.30;;;;;;5027708;28;20044;-66
2023/11/19 02:18:56;;;;;;;9.55;3.90;;;22.80;78.30;;;;;;5027481;28;20082;-64
2023/11/19 02:21:22;;;;;;;13.13;3.90;;;22.80;78.40;;;;;;5030156;28;20038;-64
2023/11/19 02:23:49;;;;;;;12.32;5.03;;;22.70;78.50;;;;;;5029418;28;20045;-64
2023/11/19 02:26:27;;;;;;;16.33;4.25;;;22.70;78.40;;;;;;5028128;28;20412;-66
2023/11/19 02:28:53;;;;;;;9.93;3.75;;;22.70;78.70;;;;;;5026324;28;20498;-64
2023/11/19 02:31:20;;;;;;;7.18;3.25;;;22.70;78.90;;;;;;5028438;28;20046;-66
2023/11/19 02:33:49;;;;;;;12.45;3.38;;;22.60;78.90;;;;;;5029093;28;20065;-65
2023/11/19 02:36:16;;;;;;;9.88;3.13;;;22.60;79.40;;;;;;5026827;28;20035;-64
2023/11/19 02:38:43;;;;;;;11.10;3.25;;;22.50;79.90;;;;;;5028633;28;20042;-62
2023/11/19 02:41:09;;;;;;;6.15;2.38;;;22.50;79.90;;;;;;5029722;28;20133;-64
2023/11/19 02:43:38;;;;;;;6.13;1.80;;;22.40;80.00;;;;;;5028876;28;20030;-65
2023/11/19 02:46:08;;;;;;;4.22;1.85;;;22.40;80.60;;;;;;5030860;28;20088;-64
2023/11/19 02:48:38;;;;;;;7.10;2.15;;;22.40;81.30;;;;;;5030964;28;20046;-68
2023/11/19 02:51:09;;;;;;;15.07;2.85;;;22.40;81.60;;;;;;5025587;28;20084;-68
2023/11/19 02:53:37;;;;;;;9.60;2.60;;;22.30;82.10;;;;;;5029095;28;20034;-65
2023/11/19 02:56:15;;;;;;;9.68;3.50;;;22.30;82.90;;;;;;5030519;28;20390;-65
2023/11/19 02:58:53;;;;;;;6.90;3.28;;;22.30;83.30;;;;;;5027873;28;20041;-64
2023/11/19 03:01:33;;;;;;;11.80;2.80;;;22.20;83.80;;;;;;5029931;28;20033;-64
2023/11/19 03:04:02;;;;;;;11.07;2.58;;;22.20;84.60;;;;;;5028726;28;20040;-66
2023/11/19 03:06:28;;;;;;;6.82;2.78;;;22.20;85.30;;;;;;5028926;28;20060;-64
2023/11/19 03:08:56;;;;;;;5.38;3.15;;;22.20;85.90;;;;;;5029028;28;20042;-60
2023/11/19 03:11:22;;;;;;;9.07;4.07;;;22.10;86.10;;;;;;5029487;28;20042;-63
2023/11/19 03:13:48;;;;;;;5.30;3.05;;;22.10;86.50;;;;;;5029890;28;20062;-62
2023/11/19 03:16:16;;;;;;;7.68;3.03;;;22.00;87.00;;;;;;5029907;28;20049;-62
2023/11/19 03:18:43;;;;;;;7.35;2.75;;;22.00;87.50;;;;;;5028388;28;20103;-59
2023/11/19 03:21:09;;;;;;;7.93;2.75;;;21.90;87.80;;;;;;5029978;28;20138;-62
2023/11/19 03:23:36;;;;;;;8.15;2.55;;;21.90;88.00;;;;;;5028428;28;20046;-63
2023/11/19 03:26:05;;;;;;;7.38;2.67;;;21.80;88.30;;;;;;5031044;28;20129;-66
2023/11/19 03:28:32;;;;;;;6.55;2.17;;;21.80;88.30;;;;;;5029158;28;20486;-62
2023/11/19 03:30:58;;;;;;;11.52;2.50;;;21.70;88.90;;;;;;5028941;28;20039;-56
2023/11/19 03:33:27;;;;;;;5.40;4.15;;;21.70;89.20;;;;;;5029616;28;20062;-65
2023/11/19 03:35:56;;;;;;;8.70;3.10;;;21.70;89.60;;;;;;5030351;28;20965;-61
2023/11/19 03:38:23;;;;;;;14.25;4.10;;;21.70;90.00;;;;;;5030394;28;20039;-61
2023/11/19 03:40:49;;;;;;;14.68;4.28;;;21.60;90.30;;;;;;5034710;28;20035;-62
2023/11/19 03:43:16;;;;;;;7.18;3.38;;;21.60;90.40;;;;;;5030756;28;20126;-63
2023/11/19 03:45:43;;;;;;;11.27;2.80;;;21.50;90.70;;;;;;5033087;28;20147;-62
2023/11/19 03:48:09;;;;;;;12.70;4.50;;;21.50;91.00;;;;;;5033290;28;20054;-62
2023/11/19 03:50:36;;;;;;;9.52;3.85;;;21.40;91.40;;;;;;5032744;28;20084;-59
2023/11/19 03:53:02;;;;;;;9.10;4.10;;;21.40;91.60;;;;;;5033862;28;20085;-62
2023/11/19 03:55:29;;;;;;;7.85;3.15;;;21.40;91.90;;;;;;5031392;28;20039;-62
2023/11/19 03:57:56;;;;;;;10.30;3.35;;;21.30;92.00;;;;;;5034347;28;20090;-65
2023/11/19 04:00:22;;;;;;;14.68;4.28;;;21.30;92.00;;;;;;5032949;28;20066;-64
2023/11/19 04:02:49;;;;;;;6.13;2.88;;;21.30;92.20;;;;;;5033640;28;20151;-64
2023/11/19 04:05:15;;;;;;;8.63;2.58;;;21.20;92.00;;;;;;5032142;28;20043;-61
2023/11/19 04:07:42;;;;;;;8.80;3.58;;;21.20;91.80;;;;;;5033029;28;20049;-63
2023/11/19 04:10:08;;;;;;;6.30;2.95;;;21.20;91.90;;;;;;5032370;28;20049;-63
2023/11/19 04:12:36;;;;;;;8.98;4.05;;;21.20;91.90;;;;;;5032134;28;20097;-63
2023/11/19 04:15:02;;;;;;;8.75;3.28;;;21.20;91.70;;;;;;5032565;28;20566;-66
2023/11/19 04:17:29;;;;;;;5.35;2.85;;;21.10;91.40;;;;;;5033045;28;20043;-63
2023/11/19 04:19:55;;;;;;;11.23;3.70;;;21.10;91.30;;;;;;5032068;28;20059;-64
2023/11/19 04:22:22;;;;;;;9.07;3.28;;;21.10;91.30;;;;;;5032029;28;20066;-66
2023/11/19 04:24:48;;;;;;;9.82;4.28;;;21.10;91.00;;;;;;5032453;28;20054;-63
2023/11/19 04:27:15;;;;;;;7.60;4.50;;;21.10;91.10;;;;;;5032417;28;20492;-65
2023/11/19 04:29:41;;;;;;;10.65;3.65;;;21.10;91.20;;;;;;5031241;28;20079;-64
2023/11/19 04:32:08;;;;;;;5.63;2.97;;;21.00;91.10;;;;;;5033479;28;20055;-63
2023/11/19 04:34:36;;;;;;;9.75;2.63;;;21.00;91.10;;;;;;5032427;28;20082;-65
2023/11/19 04:37:03;;;;;;;8.65;3.42;;;20.90;90.90;;;;;;5031474;28;20506;-63
2023/11/19 04:39:30;;;;;;;8.48;2.60;;;20.90;91.10;;;;;;5033155;28;20043;-64
2023/11/19 04:41:56;;;;;;;10.68;4.93;;;20.90;91.00;;;;;;5031465;28;20064;-64
2023/11/19 04:44:23;;;;;;;9.68;3.85;;;20.90;91.00;;;;;;5031561;28;20057;-63
2023/11/19 04:46:49;;;;;;;6.82;3.55;;;20.90;91.00;;;;;;5032566;28;20039;-66
2023/11/19 04:49:16;;;;;;;8.25;3.42;;;20.80;91.00;;;;;;5030733;28;20065;-64
2023/11/19 04:51:48;;;;;;;8.73;2.92;;;20.80;91.00;;;;;;5032926;28;20418;-56
2023/11/19 04:54:14;;;;;;;7.57;2.80;;;20.70;91.00;;;;;;5033181;28;20065;-59
2023/11/19 04:56:45;;;;;;;7.10;2.55;;;20.70;91.20;;;;;;5032041;28;20372;-57
2023/11/19 04:59:11;;;;;;;6.78;2.60;;;20.70;91.30;;;;;;5031818;28;20408;-58
2023/11/19 05:01:38;;;;;;;6.80;2.80;;;20.70;91.30;;;;;;5032330;28;20047;-59
2023/11/19 05:04:04;;;;;;;12.65;5.18;;;20.70;91.30;;;;;;5032365;28;20166;-60
2023/11/19 05:06:31;;;;;;;9.02;5.35;;;20.70;91.50;;;;;;5032319;28;20126;-58
2023/11/19 05:09:09;;;;;;;12.60;6.57;;;20.60;91.50;;;;;;5033302;28;20560;-57
2023/11/19 05:11:35;;;;;;;6.47;2.63;;;20.60;91.50;;;;;;5030188;28;20050;-58
2023/11/19 05:14:05;;;;;;;8.95;2.25;;;20.60;91.70;;;;;;5032032;28;20069;-59
2023/11/19 05:16:31;;;;;;;5.88;2.03;;;20.60;91.80;;;;;;5029356;28;20092;-58
2023/11/19 05:18:58;;;;;;;4.38;2.00;;;20.60;92.20;;;;;;5031042;28;20044;-57
2023/11/19 05:21:24;;;;;;;9.68;2.10;;;20.60;91.90;;;;;;5031465;28;20125;-57
2023/11/19 05:23:51;;;;;;;10.43;2.70;;;20.60;91.90;;;;;;5031862;28;20404;-56
2023/11/19 05:26:22;;;;;;;9.77;2.70;;;20.60;91.90;;;;;;5031274;28;20054;-60
2023/11/19 05:28:49;;;;;;;7.35;2.17;;;20.60;92.00;;;;;;5032144;28;20053;-61
2023/11/19 05:31:17;;;;;;;8.20;2.00;;;20.50;92.10;;;;;;5030332;28;20083;-64
2023/11/19 05:33:43;;;;;;;8.70;2.42;;;20.50;92.20;;;;;;5031051;28;20148;-64
2023/11/19 05:36:12;;;;;;;9.32;2.45;;;20.50;92.20;;;;;;5030704;28;20048;-63
2023/11/19 05:38:39;;;;;;;8.60;2.40;;;20.50;92.20;;;;;;5031381;28;20528;-64
2023/11/19 05:41:06;;;;;;;9.75;2.53;;;20.50;92.30;;;;;;5030237;28;20046;-61
2023/11/19 05:43:33;;;;;;;10.00;2.40;;;20.40;92.40;;;;;;5031214;28;20272;-61
2023/11/19 05:46:01;;;;;;;7.95;2.45;;;20.40;92.50;;;;;;5031380;28;20067;-60
2023/11/19 05:48:28;;;;;;;13.93;2.53;;;20.40;92.60;;;;;;5030481;28;20084;-61
2023/11/19 05:50:55;;;;;;;9.40;2.25;;;20.40;92.70;;;;;;5030552;28;20087;-60
2023/11/19 05:53:21;;;;;;;11.35;2.70;;;20.30;92.40;;;;;;5030674;28;20431;-60
2023/11/19 05:55:57;;;;;;;7.53;2.65;;;20.30;92.40;;;;;;5031230;28;20109;-61
2023/11/19 05:58:26;;;;;;;7.72;2.42;;;20.40;92.40;;;;;;5029209;28;20427;-60
2023/11/19 06:00:53;;;;;;;11.40;3.53;;;20.30;92.40;;;;;;5030146;28;20051;-59
2023/11/19 06:03:19;;;;;;;9.30;4.00;;;20.30;92.50;;;;;;5030712;28;20079;-60
2023/11/19 06:05:46;;;;;;;5.13;3.00;;;20.30;92.50;;;;;;5030617;28;20047;-57
2023/11/19 06:08:13;;;;;;;12.20;3.40;;;20.20;92.40;;;;;;5030066;28;20042;-61
2023/11/19 06:10:43;;;;;;;11.48;2.65;;;20.20;92.50;;;;;;5030633;28;20047;-60
2023/11/19 06:13:14;;;;;;;9.02;2.72;;;20.20;92.60;;;;;;5029824;28;20081;-60
2023/11/19 06:15:42;;;;;;;6.50;2.10;;;20.20;92.70;;;;;;5029349;28;20496;-60
2023/11/19 06:18:09;;;;;;;7.93;2.08;;;20.10;92.70;;;;;;5029901;28;20044;-59
2023/11/19 06:20:36;;;;;;;4.07;2.13;;;20.10;92.80;;;;;;5031061;28;20418;-60
2023/11/19 06:23:02;;;;;;;7.13;2.15;;;20.10;92.80;;;;;;5030494;28;20111;-63
2023/11/19 06:25:29;;;;;;;7.38;1.98;;;20.10;92.90;;;;;;5029665;28;20047;-62
2023/11/19 06:27:57;;;;;;;8.68;2.50;;;20.10;93.00;;;;;;5031293;28;20051;-58
2023/11/19 06:30:23;;;;;;;5.70;2.42;;;20.00;93.00;;;;;;5027075;28;20056;-60
2023/11/19 06:32:50;;;;;;;9.60;3.35;;;20.00;92.90;;;;;;5030083;28;20509;-61
2023/11/19 06:35:16;;;;;;;7.18;2.67;;;20.00;93.10;;;;;;5030113;28;20116;-58
2023/11/19 06:37:43;;;;;;;9.63;2.75;;;20.00;93.10;;;;;;5030628;28;20047;-59
2023/11/19 06:40:10;;;;;;;9.23;3.35;;;20.00;93.40;;;;;;5030199;28;20049;-61
2023/11/19 06:42:36;;;;;;;9.15;3.70;;;20.00;93.50;;;;;;5029994;28;20071;-59
2023/11/19 06:45:03;;;;;;;9.57;3.03;;;19.90;93.70;;;;;;5030201;28;20062;-61
2023/11/19 06:47:30;;;;;;;12.40;3.08;;;19.90;93.70;;;;;;5030311;28;20493;-61
2023/11/19 06:49:56;;;;;;;8.00;2.65;;;19.90;93.80;;;;;;5030105;28;20087;-59
2023/11/19 06:52:24;;;;;;;8.75;2.13;;;19.90;94.10;;;;;;5028694;28;20419;-61
2023/11/19 06:54:50;;;;;;;3.92;1.73;;;19.80;94.00;;;;;;5029683;28;20051;-60
2023/11/19 06:57:17;;;;;;;6.35;1.98;;;19.80;94.20;;;;;;5029572;28;20043;-59
2023/11/19 06:59:43;;;;;;;6.18;2.50;;;19.80;94.30;;;;;;5028176;28;20039;-60
2023/11/19 07:02:10;;;;;;;7.68;2.80;;;19.70;94.30;;;;;;5027776;28;20519;-58
2023/11/19 07:04:37;;;;;;;6.35;3.00;;;19.80;94.30;;;;;;5029806;28;20519;-61
2023/11/19 07:07:03;;;;;;;7.22;2.30;;;19.70;94.40;;;;;;5029138;28;20130;-61
2023/11/19 07:09:30;;;;;;;4.32;2.40;;;19.70;94.20;;;;;;5030209;28;20574;-60
2023/11/19 07:11:56;;;;;;;5.05;2.17;;;19.70;94.00;;;;;;5029537;28;20047;-60
2023/11/19 07:14:23;;;;;;;8.18;3.13;;;19.70;93.90;;;;;;5029469;28;20062;-58
2023/11/19 07:16:50;;;;;;;6.28;2.35;;;19.70;94.00;;;;;;5029179;28;20051;-59
2023/11/19 07:19:16;;;;;;;7.38;2.40;;;19.70;94.00;;;;;;5029782;28;20035;-59
2023/11/19 07:21:46;;;;;;;11.32;2.08;;;19.70;94.10;;;;;;5027029;28;20046;-63
2023/11/19 07:24:13;;;;;;;5.30;1.90;;;19.60;94.20;;;;;;5029619;28;20047;-61
2023/11/19 07:26:47;;;;;;;5.82;1.98;;;19.60;94.40;;;;;;5029984;28;20126;-59
2023/11/19 07:29:16;;;;;;;8.15;2.08;;;19.60;94.50;;;;;;5029489;28;20051;-61
2023/11/19 07:31:46;;;;;;;4.03;1.75;;;19.60;94.40;;;;;;5028435;28;20047;-61
2023/11/19 07:34:13;;;;;;;5.82;1.77;;;19.50;94.40;;;;;;5027763;28;20067;-61
2023/11/19 07:36:40;;;;;;;5.88;2.00;;;19.40;94.30;;;;;;5029074;28;20055;-58
2023/11/19 07:39:08;;;;;;;7.28;2.00;;;19.40;94.60;;;;;;5028786;28;20059;-60
2023/11/19 07:41:35;;;;;;;7.30;2.17;;;19.30;94.80;;;;;;5031034;28;20129;-60
2023/11/19 07:44:01;;;;;;;7.70;2.08;;;19.30;95.00;;;;;;5028121;28;20128;-60
2023/11/19 07:46:28;;;;;;;7.72;2.20;;;19.20;95.30;;;;;;5029605;28;20113;-58
2023/11/19 07:48:54;;;;;;;5.78;1.83;;;19.20;95.20;;;;;;5028811;28;20053;-61
2023/11/19 07:51:21;;;;;;;4.43;1.98;;;19.10;94.90;;;;;;5029403;28;20085;-60
2023/11/19 07:53:48;;;;;;;7.45;3.42;;;19.10;94.60;;;;;;5029091;28;20071;-60
2023/11/19 07:56:14;;;;;;;6.10;2.40;;;19.10;94.70;;;;;;5028423;28;20493;-60
2023/11/19 07:58:41;;;;;;;7.43;2.78;;;19.10;94.50;;;;;;5029051;28;20062;-57
2023/11/19 08:01:09;;;;;;;5.32;2.05;;;19.10;94.30;;;;;;5029647;28;20071;-59
2023/11/19 08:03:35;;;;;;;3.42;1.60;;;19.10;93.90;;;;;;5028364;28;20512;-61
2023/11/19 08:06:04;;;;;;;6.35;1.60;;;19.20;93.40;;;;;;5027017;28;20054;-60
2023/11/19 08:08:32;;;;;;;3.92;1.42;;;19.20;93.40;;;;;;5029532;28;20047;-57
2023/11/19 08:10:59;;;;;;;5.57;1.58;;;19.20;93.50;;;;;;5029176;28;20069;-63
2023/11/19 08:13:25;;;;;;;7.65;1.70;;;19.20;93.90;;;;;;5029465;28;20062;-60
2023/11/19 08:15:52;;;;;;;8.40;3.10;;;19.10;93.50;;;;;;5025374;28;20048;-62
2023/11/19 08:18:18;;;;;;;4.78;1.73;;;19.20;93.80;;;;;;5026172;28;20567;-61
2023/11/19 08:20:47;;;;;;;7.13;1.83;;;19.10;93.50;;;;;;5026374;28;20106;-58
2023/11/19 08:23:13;;;;;;;3.85;1.50;;;19.10;93.60;;;;;;5027619;28;20109;-59
2023/11/19 08:25:40;;;;;;;4.45;1.67;;;19.20;93.40;;;;;;5033395;28;20047;-57
2023/11/19 08:28:06;;;;;;;5.35;2.00;;;19.20;93.40;;;;;;5031325;28;20505;-61
2023/11/19 08:30:33;;;;;;;4.28;1.52;;;19.10;93.30;;;;;;5032131;28;20054;-62
2023/11/19 08:33:02;;;;;;;4.72;1.63;;;19.10;93.30;;;;;;5031986;28;20216;-60
2023/11/19 08:35:29;;;;;;;5.65;1.70;;;19.10;93.60;;;;;;5031189;28;20516;-60
2023/11/19 08:37:57;;;;;;;4.30;1.77;;;19.10;93.70;;;;;;5031552;28;20059;-58
2023/11/19 08:40:23;;;;;;;4.18;1.98;;;19.10;93.70;;;;;;5033500;28;20048;-58
2023/11/19 08:42:50;;;;;;;5.40;3.58;;;19.00;93.80;;;;;;5032043;28;20685;-58
2023/11/19 08:45:16;;;;;;;7.85;2.78;;;19.00;93.50;;;;;;5031218;28;20102;-58
2023/11/19 08:47:45;;;;;;;4.63;2.63;;;19.10;92.70;;;;;;5031792;28;20056;-58
2023/11/19 08:50:12;;;;;;;3.30;1.60;;;19.20;92.20;;;;;;5031454;28;20086;-57
2023/11/19 08:52:38;;;;;;;2.45;1.05;;;19.30;91.80;;;;;;5031296;28;20117;-58
2023/11/19 08:55:05;;;;;;;2.72;1.08;;;19.40;91.40;;;;;;5031187;28;20082;-59
2023/11/19 08:57:35;;;;;;;5.53;1.05;;;19.50;91.20;;;;;;5030994;28;20462;-62
2023/11/19 09:00:04;;;;;;;2.50;0.80;;;19.60;91.10;;;;;;5032719;28;20036;-60
2023/11/19 09:02:32;;;;;;;5.57;0.88;;;19.60;90.90;;;;;;5030953;28;20042;-60
2023/11/19 09:04:58;;;;;;;1.88;1.00;;;19.70;90.80;;;;;;5029073;28;20051;-62
2023/11/19 09:07:25;;;;;;;3.35;1.00;;;19.80;90.60;;;;;;5031888;28;20455;-63
2023/11/19 09:09:51;;;;;;;3.22;1.38;;;19.90;90.60;;;;;;5031430;28;20044;-60
2023/11/19 09:12:18;;;;;;;5.85;1.52;;;19.90;90.50;;;;;;5028852;28;20076;-61
2023/11/19 09:14:45;;;;;;;2.13;1.13;;;20.00;90.60;;;;;;5030816;28;20047;-63
2023/11/19 09:17:12;;;;;;;3.78;1.50;;;19.90;90.40;;;;;;5030673;28;20079;-62
2023/11/19 09:19:38;;;;;;;4.03;1.38;;;20.00;90.70;;;;;;5029836;28;20042;-64
2023/11/19 09:22:05;;;;;;;4.20;1.88;;;19.90;90.90;;;;;;5029972;28;20042;-62
2023/11/19 09:24:31;;;;;;;8.25;1.90;;;19.90;90.60;;;;;;5032109;28;20065;-63
2023/11/19 09:26:58;;;;;;;9.95;2.25;;;19.80;90.90;;;;;;5030240;28;20050;-63
2023/11/19 09:29:24;;;;;;;6.07;2.08;;;19.70;91.10;;;;;;5031594;28;20045;-63
2023/11/19 09:31:51;;;;;;;9.52;2.03;;;19.70;91.00;;;;;;5028905;28;20147;-65
2023/11/19 09:34:18;;;;;;;6.65;2.00;;;19.70;91.00;;;;;;5031424;28;20142;-63
2023/11/19 09:36:44;;;;;;;6.15;1.60;;;19.70;91.70;;;;;;5031839;28;20055;-63
2023/11/19 09:39:14;;;;;;;4.53;1.98;;;19.60;92.10;;;;;;5031456;28;20046;-63
2023/11/19 09:41:42;;;;;;;8.30;2.10;;;19.60;92.20;;;;;;5029777;28;20040;-63
2023/11/19 09:44:09;;;;;;;5.47;2.45;;;19.50;92.30;;;;;;5031405;28;20062;-63
2023/11/19 09:46:37;;;;;;;10.38;2.80;;;19.50;92.40;;;;;;5028740;28;20051;-62
2023/11/19 09:49:07;;;;;;;25.50;18.50;;;19.40;92.90;;;;;;5031347;28;20067;-64
2023/11/19 09:51:34;;;;;;;27.23;19.95;;;19.30;92.60;;;;;;5049198;28;20238;-63
2023/11/19 09:54:01;;;;;;;27.02;19.30;;;19.20;93.10;;;;;;5031865;28;20526;-64
2023/11/19 09:56:29;;;;;;;23.58;18.08;;;19.10;93.30;;;;;;5029641;28;20657;-65
2023/11/19 09:58:56;;;;;;;23.92;18.00;;;19.10;93.80;;;;;;5030294;28;20104;-63
2023/11/19 10:01:23;;;;;;;23.33;18.35;;;19.10;93.90;;;;;;5029889;28;20093;-63
2023/11/19 10:03:54;;;;;;;5.72;1.85;;;19.00;94.20;;;;;;5029668;28;20059;-62
2023/11/19 10:06:21;;;;;;;14.77;10.90;;;19.00;94.30;;;;;;5029989;28;20096;-62
2023/11/19 10:08:48;;;;;;;2.38;1.50;;;18.90;94.30;;;;;;5027158;28;20066;-62
2023/11/19 10:11:15;;;;;;;3.45;1.52;;;18.80;94.30;;;;;;5031587;28;20050;-63
2023/11/19 10:13:42;;;;;;;6.25;1.50;;;18.70;94.60;;;;;;5030435;28;20198;-64
2023/11/19 10:16:12;;;;;;;4.03;1.35;;;18.70;95.00;;;;;;5029783;28;20495;-64
2023/11/19 10:18:43;;;;;;;3.20;1.60;;;18.70;94.90;;;;;;5028480;28;20050;-64
2023/11/19 10:21:16;;;;;;;6.70;1.48;;;18.70;95.00;;;;;;5030048;28;20164;-64
2023/11/19 10:23:53;;;;;;;4.13;1.10;;;18.70;95.00;;;;;;5030817;28;20054;-63
2023/11/19 10:26:21;;;;;;;7.03;1.38;;;18.70;95.30;;;;;;5031553;28;20165;-62
2023/11/19 10:28:48;;;;;;;4.95;1.35;;;18.60;95.30;;;;;;5030610;28;20049;-62
2023/11/19 10:31:15;;;;;;;6.82;1.50;;;18.60;95.50;;;;;;5028893;28;20051;-63
2023/11/19 10:33:44;;;;;;;13.13;1.40;;;18.60;95.60;;;;;;5029834;28;20061;-63
2023/11/19 10:36:12;;;;;;;9.07;1.85;;;18.70;95.40;;;;;;5029286;28;20496;-64
2023/11/19 10:38:39;;;;;;;5.20;1.67;;;18.80;95.30;;;;;;5030491;28;20036;-63
2023/11/19 10:41:06;;;;;;;8.05;1.30;;;18.80;95.20;;;;;;5031751;28;20035;-64
2023/11/19 10:43:46;;;;;;;4.05;1.30;;;18.80;95.10;;;;;;5030082;28;20053;-63
2023/11/19 10:46:14;;;;;;;3.33;1.00;;;18.90;94.90;;;;;;5029991;28;20092;-61
2023/11/19 10:48:41;;;;;;;5.60;1.40;;;19.00;94.80;;;;;;5028556;28;20113;-63
2023/11/19 10:51:08;;;;;;;2.80;1.02;;;19.00;94.80;;;;;;5029952;28;20511;-63
2023/11/19 10:53:40;;;;;;;4.88;1.27;;;19.10;94.90;;;;;;5028693;28;20090;-61
2023/11/19 10:56:11;;;;;;;2.63;1.10;;;19.10;94.80;;;;;;5030623;28;20079;-62
2023/11/19 10:58:42;;;;;;;5.93;1.15;;;19.10;95.10;;;;;;5029844;28;20049;-63
2023/11/19 11:01:23;;;;;;;2.78;0.85;;;19.20;94.70;;;;;;5029920;28;20044;-66
2023/11/19 11:03:54;;;;;;;4.00;0.90;;;19.20;94.80;;;;;;5030512;28;20045;-62
2023/11/19 11:06:22;;;;;;;2.17;0.80;;;19.20;94.70;;;;;;5030114;28;20063;-61
2023/11/19 11:08:48;;;;;;;3.25;1.00;;;19.20;94.70;;;;;;5031526;28;20051;-61
2023/11/19 11:11:22;;;;;;;6.13;1.02;;;19.20;94.70;;;;;;5029954;28;20043;-62
2023/11/19 11:13:50;;;;;;;24.55;17.40;;;19.20;94.80;;;;;;5030612;28;20058;-62
2023/11/19 11:16:21;;;;;;;2.70;0.88;;;19.20;94.90;;;;;;5028954;28;20063;-62
2023/11/19 11:18:49;;;;;;;1.83;0.73;;;19.20;94.90;;;;;;5029211;28;20130;-61
2023/11/19 11:21:23;;;;;;;3.63;0.98;;;19.20;95.00;;;;;;5029982;28;20098;-61
2023/11/19 11:24:02;;;;;;;2.03;0.70;;;19.20;95.00;;;;;;5029418;28;20121;-62
2023/11/19 11:26:52;;;;;;;3.83;0.88;;;19.20;95.00;;;;;;5029210;28;20097;-62
2023/11/19 11:29:38;;;;;;;4.28;0.85;;;19.20;95.20;;;;;;5028905;28;20574;-63
2023/11/19 11:32:21;;;;;;;2.22;0.80;;;19.10;95.20;;;;;;5028583;28;20051;-61
2023/11/19 11:35:16;;;;;;;2.60;1.00;;;19.10;95.30;;;;;;5027658;28;20052;-62
2023/11/19 11:37:56;;;;;;;4.90;0.93;;;19.10;95.50;;;;;;5029652;28;20412;-63
2023/11/19 11:40:23;;;;;;;2.28;0.73;;;19.10;95.60;;;;;;5028606;28;20074;-62
2023/11/19 11:42:51;;;;;;;3.90;0.90;;;19.00;95.90;;;;;;5029944;28;20126;-61
2023/11/19 11:45:19;;;;;;;4.40;0.88;;;19.00;96.00;;;;;;5030261;28;20538;-63
2023/11/19 11:47:56;;;;;;;3.92;0.68;;;19.00;96.10;;;;;;5030098;28;20130;-61
2023/11/19 11:50:23;;;;;;;3.20;1.08;;;18.90;96.20;;;;;;5029571;28;20055;-62
2023/11/19 11:52:59;;;;;;;3.70;1.50;;;18.90;96.40;;;;;;5029606;28;20076;-61
2023/11/19 11:55:38;;;;;;;6.90;1.20;;;18.80;96.40;;;;;;5029158;28;20574;-60
2023/11/19 11:58:06;;;;;;;2.55;0.90;;;18.80;96.50;;;;;;5028912;28;20046;-61
2023/11/19 12:00:42;;;;;;;2.65;0.85;;;18.80;96.50;;;;;;5034273;28;20527;-62
2023/11/19 12:03:09;;;;;;;3.40;1.05;;;18.80;96.40;;;;;;5034334;28;20082;-62
2023/11/19 12:05:45;;;;;;;1.65;0.70;;;18.90;96.50;;;;;;5033227;28;20132;-62
2023/11/19 12:08:14;;;;;;;5.75;0.80;;;18.90;96.50;;;;;;5033818;28;20047;-63
2023/11/19 12:10:49;;;;;;;4.93;0.90;;;18.90;96.30;;;;;;5033187;28;20064;-62
2023/11/19 12:13:21;;;;;;;3.78;0.90;;;18.90;96.70;;;;;;5033305;28;20054;-61
2023/11/19 12:15:57;;;;;;;3.33;0.90;;;18.90;96.50;;;;;;5031545;28;20055;-63
2023/11/19 12:18:31;;;;;;;4.32;1.20;;;18.90;96.50;;;;;;5032026;28;20073;-63
2023/11/19 12:21:02;;;;;;;2.08;0.88;;;18.90;96.60;;;;;;5032918;28;20047;-62
2023/11/19 12:23:32;;;;;;;2.85;1.00;;;18.90;96.50;;;;;;5033534;28;20403;-63
2023/11/19 12:25:59;;;;;;;1.73;0.90;;;19.00;96.60;;;;;;5032016;28;20047;-63
2023/11/19 12:28:28;;;;;;;2.28;0.85;;;19.00;97.00;;;;;;5032631;28;20122;-63
2023/11/19 12:31:11;;;;;;;2.75;0.88;;;19.00;96.70;;;;;;5033415;28;20047;-63
2023/11/19 12:33:37;;;;;;;3.20;0.85;;;19.00;96.80;;;;;;5032010;28;20141;-63
2023/11/19 12:36:05;;;;;;;1.83;0.80;;;19.00;97.00;;;;;;5032758;28;20496;-61
2023/11/19 12:38:32;;;;;;;4.28;1.05;;;19.00;97.10;;;;;;5032961;28;20043;-61
2023/11/19 12:41:13;;;;;;;1.00;0.60;;;18.90;97.30;;;;;;5032678;28;20532;-61
2023/11/19 12:43:40;;;;;;;4.03;0.68;;;18.90;97.50;;;;;;5031912;28;20060;-61
2023/11/19 12:46:22;;;;;;;4.53;1.02;;;18.90;97.60;;;;;;5033254;28;20067;-62
2023/11/19 12:48:50;;;;;;;3.85;0.70;;;18.80;97.90;;;;;;5030348;28;20060;-61